الصفحة الرئيسية
METAR-TAF:

METAR-TAF

مطار :

مطار واشنطن دولس الدولي

Washington, فيرجينيا, الولايات المتحدة

دائرة عرض: 38-56-05N, خط طول: 077-26-51W, ارتفاع: 95 متر

مراقبة الطقس الحالي

تاريخ ووقت الإصدار 1ساعة و 2 دقيقة قبل الساعة 21:52UTC
ريح 5 عقدةمن اتجاهات متغيرة
درجة الحرارة 31°درجة مئوية
الرطوبة 49%
ضغط 1017 hPa
الرؤية: 16.1 كم
غيوم قليلة على ارتفاع 6000 قدم
غيوم مفككة على ارتفاع 14000 قدم
غيوم مفككة على ارتفاع 25000 قدم

METAR: KIAD 152152Z VRB05KT 10SM FEW060 BKN140 BKN250 31/19 A3002 RMK AO2 SLP162 T03060189

زمن: 18:54 (22:54 UTC)

توقعات

تاريخ ووقت الإصدار 2ساعات و 23 دقيقة قبل الساعة 20:31UTC
التوقعات صالحة من15 الساعة 21 UTC إلى 16 الساعة 24 UTC
ريح 8 عقدة من الغرب/الشمال الغربي
الرؤية: 10 كم
غيوم متفرقة على ارتفاع 5000 قدم
غيوم مفككة على ارتفاع 20000 قدم
من 16 الساعة 0000 UTC
ريح 3 عقدةمن اتجاهات متغيرة
الرؤية: 10 كم
غيوم متفرقة على ارتفاع 25000 قدم
من 16 الساعة 1600 UTC
ريح 6 عقدة من الجنوب/الجنوب الغربي
الرؤية: 10 كم
غيوم مفككة على ارتفاع 15000 قدم

TAF: KIAD 152031Z 1521/1624 29008KT P6SM SCT050 BKN200 FM160000 VRB03KT P6SM SCT250 FM161600 21006KT P6SM BKN150

أرصاد الطقس والتوقعات من أكثر من 4000 مطار (تقارير الطقس للمطار METAR والتنبؤ بالطقس بالمطارTAF).

المحطات المتاحة هي النقط الصفراء والحمراء على الخريطة.

حرك المؤشر فوق النقطة لمعرفة اسم المحطة.

ثم انقر لمعرفة أرصاد وتوقعات الطقس.

لتغيير الخارطة: اضغط على الأزرار الخضراء مع رمز الصليب الأسود للتكبير. على الزر الأخضر مع شرطة للتصغير، أو على الأسهم الخضراء للخرائط المجاورة.


METAR-TAF: